Historyczne dane pomiarowe

Dodano dane terminowe – wersja testowa.

Dane z okresu 1951-2019

Wersja bazy: 1.34 [2019-03-16, lista zmian], aktualizacja planowana na 2019-04-15

Dane meteo z obszaru Polski uzyskane na podstawie danych udostępnionych przez Instytut Meteorologii i Gospodarki Wodnej – Państwowy Instytut Badawczy.

 

Wybierz Datę:    

       

TemperaturaWilgotnośćWiatrCiśnienieOpadyŚniegCzas trwania zjawisk
 Stacja t tx tn tng RH VA  wxwx mslp ppp RRR   cm mm wxwxwxwxwxwxwx
1994-08-14 14.7 19.5 12.0 12.2 73.0- 5.7 7.0---- 0.0------------
1994-08-13 17.4 22.1 14.8 14.3 85.5- 5.7 4.7---- 2.7------------
1994-08-12 17.8 21.5 13.3 11.8 84.8- 7.3 3.3---- 0.0------------
1994-08-11 19.1 25.0 10.6 9.7 77.0- 5.7 2.3---- 0.0------------
1994-08-10 19.7 25.1 15.8 15.2 76.0- 4.3 4.0---- 0.0------------
1994-08-09 19.1 25.1 14.8 13.7 88.8- 7.3 2.7---- 38.5------------
1994-08-08 18.7 25.3 14.9 13.0 91.5- 7.3 3.3---- 10.7------------
1994-08-07 23.7 30.1 12.8 11.5 66.8- 5.7 3.7---- 0.6------------
1994-08-06 25.1 33.2 13.7 11.8 59.8- 2.0 2.3---- 0.0------------
1994-08-05 24.0 32.0 13.9 8.1 66.0- 4.3 1.3---- 0.0------------
1994-08-04 22.6 29.5 15.2 12.2 77.8- 3.7 2.3---- 0.0------------
1994-08-03 23.2 28.5 15.3 13.4 71.5- 5.3 3.0---- 5.8------------
1994-08-02 26.1 33.0 15.2 13.2 58.8- 6.0 2.7---- 0.0------------
1994-08-01 28.1 34.9 14.3 14.2 55.5- 4.3 2.7---- 0.0------------
1994-07-31 27.5 35.9 14.3 12.7 55.8- 4.3 2.3---- 0.0------------
1994-07-30 26.9 34.7 14.7 12.5 57.0- 3.3 1.7---- 0.0------------
1994-07-29 26.4 35.1 13.3 10.6 55.3- 1.0 2.3---- 0.0------------
1994-07-28 24.7 34.0 12.8 10.3 63.3- 3.3 1.3---- 0.0------------
1994-07-27 24.9 33.5 12.8 10.0 56.8- 2.7 2.0---- 0.0------------
1994-07-26 24.1 33.0 12.3 9.9 59.8- 2.7 2.0---- 0.0------------
1994-07-25 23.0 32.0 10.6 8.2 57.0- 2.3 1.7---- 0.0------------
1994-07-24 22.2 30.5 11.1 8.6 60.8- 2.0 0.7---- 0.0------------
1994-07-23 20.8 28.5 10.3 8.1 61.0- 2.7 1.7---- 0.0------------
1994-07-22 19.7 27.0 7.4 5.5 64.3- 2.0 3.7---- 0.0------------
1994-07-21 19.5 27.8 7.4 5.0 62.3- 2.0 2.0---- 0.0------------
1994-07-20 16.7 24.0 7.8 5.0 68.8- 1.7 1.7---- 0.0------------
1994-07-19 18.3 24.0 11.6 11.0 68.3- 1.7 3.0---- 0.0------------
1994-07-18 20.0 23.5 14.1 12.7 76.8- 6.7 3.0---- 7.6------------
1994-07-17 21.6 28.6 13.7 11.2 73.5- 5.3 3.3---- 0.3------------
1994-07-16 24.5 32.0 12.4 9.7 56.3- 3.7 2.3---- 0.0------------
1994-07-15 24.9 30.5 16.3 12.3 58.0- 0.7 3.7---- 0.0------------
1994-07-14 24.8 31.5 15.5 13.3 63.8- 1.7 3.7---- 0.0------------
1994-07-13 24.0 31.5 11.5 9.1 56.8- 2.7 2.0---- 0.0------------
1994-07-12 23.2 31.0 11.8 8.2 56.0- 1.0 3.7---- 0.0------------
1994-07-11 20.5 25.3 10.8 9.0 78.5- 3.0 4.3---- 0.0------------
1994-07-10 17.6 26.5 10.6 8.6 87.0- 5.0 3.0---- 1.6------------
1994-07-09 13.9 18.0 9.3 5.6 94.5- 7.0 3.3---- 3.0------------
1994-07-08 16.1 23.3 12.4 8.0 87.5- 5.7 2.7---- 9.6------------
1994-07-07 19.4 27.0 7.3 4.4 59.3- 4.3 2.7---- 0.0------------
1994-07-06 18.2 24.5 7.2 3.3 67.3- 3.0 2.7---- 0.0------------
1994-07-05 18.9 25.8 10.3 5.5 65.8- 2.0 4.3---- 0.0------------
1994-07-04 18.8 26.0 7.0 3.2 67.8- 1.0 2.7---- 0.0------------
1994-07-03 17.7 25.0 6.0 1.7 65.5- 2.0 2.7---- 0.0------------
1994-07-02 16.5 23.0 6.4 1.2 66.0- 0.0 4.3---- 0.0------------
1994-07-01 17.4 23.4 7.4 3.1 66.3- 2.7 4.7---- 0.0------------
1994-06-30 21.8 30.1 13.2 10.1 74.5- 4.3 3.3---- 0.0------------
1994-06-29 22.4 29.6 11.8 8.0 67.5- 0.0 2.0---- 0.0------------
1994-06-28 21.2 26.6 13.5 8.3 66.3- 0.0 2.3---- 0.0------------
1994-06-27 23.1 30.0 15.7 9.6 67.8- 2.0 3.7---- 0.0------------
1994-06-26 19.9 28.0 7.0 2.3 62.3- 0.0 4.0---- 0.0------------
1994-06-25 15.2 22.1 4.7 0.2 69.3- 2.3 2.3---- 0.0------------
1994-06-24 13.0 18.0 8.1 5.2 61.0- 5.7 6.7---- 0.0------------
1994-06-23 16.3 22.2 14.1 12.7 53.8- 3.0 11.0---- 0.0------------
1994-06-22 17.5 24.3 6.0 2.2 70.8- 5.7 5.0---- 0.0------------
1994-06-21 13.9 20.5 3.8 -0.3 71.0- 3.0 4.0---- 0.0------------
1994-06-20 15.2 18.0 12.6 10.7 70.8- 3.7 7.0---- 0.0------------
1994-06-19 13.9 17.5 11.7 9.6 88.5- 7.7 4.3---- 1.2------------
1994-06-18 11.6 17.5 2.8 2.1 70.0- 5.0 3.3---- 1.8------------
1994-06-17 11.5 14.9 7.9 6.7 66.8- 4.0 5.0---- 0.0------------
1994-06-16 11.4 16.0 5.5 1.1 76.8- 5.7 4.3---- 0.2------------
265.2 ms

 

Źródłem pochodzenia danych jest Instytut Meteorologii i Gospodarki Wodnej – Państwowy Instytut Badawczy. Dane Instytutu Meteorologii i Gospodarki Wodnej – Państwowego Instytutu Badawczego zostały przetworzone.

Dane źródłowe można odnaleźć na stronie https://dane.imgw.pl